Time;durP1;ratioP1;P1;durP2;ratioP2;P2;SDS_P1;SDS_P2;PMS_P1;PMS_P2;Temp;Humidity;BMP_temperature;BMP_pressure;BME280_temperature;BME280_humidity;BME280_pressure;Samples;Min_cycle;Max_cycle;Signal;HPM_P1;HPM_P2
2021/07/25 00:00:33;;;;;;;18.77;16.45;;;589.60;1561.60;;;;;;5095721;28;20040;-70
2021/07/25 00:02:59;;;;;;;19.30;16.30;;;589.60;1561.60;;;;;;5095459;28;20071;-70
2021/07/25 00:05:24;;;;;;;21.42;16.08;;;589.60;1561.60;;;;;;5095619;28;20031;-70
2021/07/25 00:07:50;;;;;;;18.25;16.08;;;589.60;1561.60;;;;;;5095601;28;20059;-70
2021/07/25 00:10:16;;;;;;;17.67;15.55;;;589.60;1587.20;;;;;;5095315;28;20024;-70
2021/07/25 00:12:41;;;;;;;19.00;15.02;;;589.60;1561.60;;;;;;5095550;28;20020;-71
2021/07/25 00:15:08;;;;;;;16.55;14.80;;;589.50;1587.20;;;;;;5095235;28;20077;-71
2021/07/25 00:17:33;;;;;;;17.48;14.52;;;589.60;1561.60;;;;;;5095025;28;20030;-70
2021/07/25 00:19:59;;;;;;;19.20;16.60;;;589.60;1561.60;;;;;;5095322;28;20028;-70
2021/07/25 00:22:25;;;;;;;18.65;15.43;;;589.50;1561.60;;;;;;5095078;28;20089;-70
2021/07/25 00:25:01;;;;;;;22.33;14.93;;;589.50;1561.60;;;;;;5094991;28;20065;-70
2021/07/25 00:27:28;;;;;;;17.17;15.38;;;589.50;1587.20;;;;;;5094180;28;20024;-70
2021/07/25 00:29:54;;;;;;;17.10;15.00;;;589.50;1561.60;;;;;;5095176;28;20024;-71
2021/07/25 00:32:19;;;;;;;18.73;15.35;;;589.50;1561.60;;;;;;5093717;28;20047;-71
2021/07/25 00:34:45;;;;;;;16.75;14.95;;;589.40;1587.20;;;;;;5095146;28;20355;-71
2021/07/25 00:37:11;;;;;;;16.85;15.07;;;589.40;1587.20;;;;;;5094944;28;20412;-71
2021/07/25 00:39:37;;;;;;;18.83;14.88;;;589.40;1587.20;;;;;;5095080;28;20028;-71
2021/07/25 00:42:03;;;;;;;17.80;14.70;;;589.30;1587.20;;;;;;5094399;28;20094;-71
2021/07/25 00:44:29;;;;;;;19.83;15.40;;;589.30;1587.20;;;;;;5094913;28;20093;-73
2021/07/25 00:46:59;;;;;;;16.08;14.43;;;589.30;1587.20;;;;;;5094827;28;20072;-72
2021/07/25 00:49:26;;;;;;;16.67;14.98;;;589.30;1587.20;;;;;;5093524;28;20084;-70
2021/07/25 00:51:52;;;;;;;17.88;14.15;;;589.30;1587.20;;;;;;5094522;28;20027;-70
2021/07/25 00:54:19;;;;;;;16.02;13.73;;;589.30;1587.20;;;;;;5094632;28;20077;-70
2021/07/25 00:56:45;;;;;;;21.02;13.73;;;589.30;1587.20;;;;;;5094583;28;20035;-70
2021/07/25 00:59:12;;;;;;;15.68;13.82;;;589.30;1587.20;;;;;;5094435;28;20028;-70
2021/07/25 01:01:37;;;;;;;16.77;13.15;;;589.20;1587.20;;;;;;5094504;28;20027;-70
2021/07/25 01:04:30;;;;;;;16.77;13.00;;;589.30;1587.20;;;;;;5094312;28;20498;-70
2021/07/25 01:07:20;;;;;;;15.15;12.95;;;589.20;1561.60;;;;;;5094288;28;20130;-70
2021/07/25 01:09:54;;;;;;;16.80;13.05;;;589.20;1561.60;;;;;;5094407;28;20556;-70
2021/07/25 01:12:31;;;;;;;17.23;11.93;;;589.30;1587.20;;;;;;5094203;28;20032;-70
2021/07/25 01:14:59;;;;;;;15.98;12.35;;;589.20;1587.20;;;;;;5094095;28;20028;-70
2021/07/25 01:17:27;;;;;;;15.38;11.45;;;589.20;1587.20;;;;;;5092977;28;20027;-70
2021/07/25 01:19:57;;;;;;;14.88;11.55;;;589.20;1587.20;;;;;;5094275;28;20024;-70
2021/07/25 01:22:23;;;;;;;13.30;11.93;;;589.30;1587.20;;;;;;5093988;28;20110;-69
2021/07/25 01:24:50;;;;;;;15.95;11.65;;;589.20;1587.20;;;;;;5093631;28;20020;-70
2021/07/25 01:27:31;;;;;;;13.68;11.43;;;589.20;1587.20;;;;;;5093656;28;20016;-70
2021/07/25 01:29:59;;;;;;;13.65;11.63;;;589.20;1587.20;;;;;;5092279;28;20036;-70
2021/07/25 01:32:27;;;;;;;13.93;11.48;;;589.10;1587.20;;;;;;5094171;28;20095;-72
2021/07/25 01:34:56;;;;;;;15.38;11.57;;;589.00;1587.20;;;;;;5093961;28;20034;-70
2021/07/25 01:37:23;;;;;;;12.88;11.18;;;589.10;1587.20;;;;;;5093630;28;20408;-70
2021/07/25 01:39:50;;;;;;;14.48;11.45;;;589.10;1587.20;;;;;;5093787;28;20102;-70
2021/07/25 01:42:29;;;;;;;12.93;11.00;;;589.00;1612.80;;;;;;5093720;28;20044;-70
2021/07/25 01:44:55;;;;;;;14.95;10.75;;;589.00;1612.80;;;;;;5093962;28;20033;-70
2021/07/25 01:47:21;;;;;;;15.88;10.23;;;588.90;1612.80;;;;;;5093902;28;20028;-69
2021/07/25 01:49:47;;;;;;;13.77;11.50;;;588.90;1612.80;;;;;;5093846;28;20024;-69
2021/07/25 01:52:12;;;;;;;11.52;10.35;;;588.90;1612.80;;;;;;5094097;28;20052;-69
2021/07/25 01:54:38;;;;;;;12.27;10.13;;;588.90;1612.80;;;;;;5093933;28;20031;-69
2021/07/25 01:57:04;;;;;;;13.38;10.38;;;588.90;1612.80;;;;;;5093067;28;20081;-70
2021/07/25 01:59:29;;;;;;;13.77;10.48;;;588.90;1612.80;;;;;;5093797;28;20028;-70
2021/07/25 02:01:55;;;;;;;12.65;10.80;;;588.90;1612.80;;;;;;5093459;28;20515;-70
2021/07/25 02:04:21;;;;;;;14.82;10.73;;;588.80;1612.80;;;;;;5093937;28;20052;-70
2021/07/25 02:06:47;;;;;;;14.02;10.10;;;588.80;1638.40;;;;;;5093846;28;20128;-71
2021/07/25 02:09:13;;;;;;;12.05;10.75;;;588.80;1638.40;;;;;;5093513;28;20032;-73
2021/07/25 02:11:39;;;;;;;11.60;10.40;;;588.80;1638.40;;;;;;5093525;28;20469;-72
2021/07/25 02:14:05;;;;;;;11.55;10.35;;;588.80;1638.40;;;;;;5093110;28;20055;-70
2021/07/25 02:16:31;;;;;;;13.02;9.95;;;564.10;1638.40;;;;;;5093571;28;20020;-72
2021/07/25 02:18:57;;;;;;;13.68;10.95;;;588.80;1638.40;;;;;;5093207;28;20393;-72
2021/07/25 02:21:23;;;;;;;11.48;10.27;;;564.10;1664.00;;;;;;5092248;28;20033;-70
2021/07/25 02:23:48;;;;;;;12.93;10.80;;;564.10;1664.00;;;;;;5093476;28;20064;-70
2021/07/25 02:26:14;;;;;;;13.55;10.02;;;564.00;1664.00;;;;;;5093602;28;20098;-70
2021/07/25 02:28:40;;;;;;;11.77;10.30;;;564.00;1689.60;;;;;;5093437;28;20028;-70
2021/07/25 02:31:06;;;;;;;14.38;11.38;;;564.00;1664.00;;;;;;5093445;28;20031;-70
2021/07/25 02:33:31;;;;;;;11.65;10.15;;;564.00;1664.00;;;;;;5093461;28;20108;-69
2021/07/25 02:35:57;;;;;;;13.23;10.63;;;564.00;1664.00;;;;;;5093349;28;20458;-69
2021/07/25 02:38:23;;;;;;;10.88;9.40;;;564.00;1664.00;;;;;;5093333;28;20028;-70
2021/07/25 02:40:49;;;;;;;11.40;10.20;;;564.00;1664.00;;;;;;5091660;28;20025;-70
2021/07/25 02:43:15;;;;;;;10.90;9.80;;;564.00;1664.00;;;;;;5093032;28;20072;-70
2021/07/25 02:45:40;;;;;;;10.43;9.32;;;564.00;1689.60;;;;;;5093366;28;20048;-70
2021/07/25 02:48:06;;;;;;;15.23;10.23;;;564.00;1689.60;;;;;;5092844;28;20024;-70
2021/07/25 02:50:32;;;;;;;13.60;10.25;;;564.10;1664.00;;;;;;5095134;28;20023;-70
2021/07/25 02:52:57;;;;;;;13.35;9.88;;;564.10;1689.60;;;;;;5097028;28;20034;-70
2021/07/25 02:55:23;;;;;;;11.43;10.10;;;564.00;1689.60;;;;;;5096833;28;20020;-70
2021/07/25 02:57:48;;;;;;;15.13;10.20;;;564.00;1689.60;;;;;;5096900;28;20028;-73
2021/07/25 03:00:15;;;;;;;12.32;10.45;;;564.10;1715.20;;;;;;5096894;28;20488;-72
2021/07/25 03:02:40;;;;;;;15.20;10.48;;;564.00;1715.20;;;;;;5096699;28;20028;-72
2021/07/25 03:05:07;;;;;;;11.43;10.23;;;564.10;1715.20;;;;;;5096781;28;20024;-72
2021/07/25 03:07:33;;;;;;;13.23;9.85;;;564.10;1715.20;;;;;;5096647;28;20016;-68
2021/07/25 03:09:58;;;;;;;18.27;11.02;;;564.10;1715.20;;;;;;5096552;28;20043;-73
2021/07/25 03:12:24;;;;;;;16.48;9.80;;;564.10;1715.20;;;;;;5096248;28;20425;-70
2021/07/25 03:14:50;;;;;;;12.20;9.48;;;564.10;1715.20;;;;;;5096314;28;20028;-72
2021/07/25 03:17:15;;;;;;;10.23;9.13;;;564.10;1689.60;;;;;;5096608;28;20062;-72
2021/07/25 03:19:41;;;;;;;14.50;9.73;;;588.80;1715.20;;;;;;5096376;28;20035;-72
2021/07/25 03:22:09;;;;;;;12.73;9.43;;;564.10;1715.20;;;;;;5095937;28;20024;-72
2021/07/25 03:24:35;;;;;;;11.93;9.70;;;564.10;1715.20;;;;;;5096431;28;20035;-72
2021/07/25 03:27:02;;;;;;;13.05;9.68;;;588.80;1715.20;;;;;;5096057;28;20024;-72
2021/07/25 03:29:27;;;;;;;14.70;10.15;;;588.80;1715.20;;;;;;5096100;28;20024;-72
2021/07/25 03:31:53;;;;;;;12.85;8.85;;;588.80;1689.60;;;;;;5096178;28;20150;-71
2021/07/25 03:34:19;;;;;;;11.90;9.27;;;588.80;1689.60;;;;;;5096109;28;20024;-69
2021/07/25 03:36:45;;;;;;;15.88;9.90;;;588.80;1689.60;;;;;;5096214;28;20073;-69
2021/07/25 03:39:14;;;;;;;11.52;9.68;;;588.80;1689.60;;;;;;5096372;28;20089;-71
2021/07/25 03:41:39;;;;;;;12.57;9.65;;;588.80;1689.60;;;;;;5095702;28;20109;-73
2021/07/25 03:44:06;;;;;;;13.73;9.82;;;588.80;1689.60;;;;;;5096001;28;20442;-72
2021/07/25 03:46:32;;;;;;;14.45;10.35;;;588.80;1689.60;;;;;;5095786;28;20055;-72
2021/07/25 03:48:58;;;;;;;12.18;9.63;;;588.80;1689.60;;;;;;5096054;28;20105;-71
2021/07/25 03:51:24;;;;;;;12.15;9.65;;;588.80;1689.60;;;;;;5095597;28;20021;-70
2021/07/25 03:53:49;;;;;;;12.77;9.13;;;588.80;1689.60;;;;;;5095906;28;20035;-70
2021/07/25 03:56:19;;;;;;;16.08;10.55;;;564.10;1689.60;;;;;;5095970;28;20419;-71
2021/07/25 03:58:45;;;;;;;12.88;10.00;;;588.80;1689.60;;;;;;5095742;28;20032;-72
2021/07/25 04:01:10;;;;;;;10.65;9.55;;;564.10;1689.60;;;;;;5095567;28;20480;-72
2021/07/25 04:03:37;;;;;;;11.25;9.82;;;588.80;1689.60;;;;;;5095484;28;20066;-71
2021/07/25 04:06:03;;;;;;;12.82;9.45;;;588.80;1689.60;;;;;;5095472;28;20016;-71
2021/07/25 04:08:29;;;;;;;11.50;9.00;;;588.80;1689.60;;;;;;5095582;28;20024;-71
2021/07/25 04:10:55;;;;;;;12.05;9.00;;;588.80;1689.60;;;;;;5095344;28;20039;-72
2021/07/25 04:13:20;;;;;;;10.43;9.13;;;588.80;1689.60;;;;;;5095165;28;20032;-72
2021/07/25 04:15:47;;;;;;;10.35;9.25;;;588.90;1689.60;;;;;;5095428;28;20105;-72
2021/07/25 04:18:13;;;;;;;13.38;9.88;;;588.90;1689.60;;;;;;5095108;28;20035;-71
2021/07/25 04:20:40;;;;;;;12.18;9.07;;;589.00;1664.00;;;;;;5095355;28;20031;-71
2021/07/25 04:23:05;;;;;;;12.88;10.18;;;589.00;1664.00;;;;;;5095445;28;20052;-72
2021/07/25 04:25:32;;;;;;;10.98;8.98;;;589.10;1664.00;;;;;;5095082;28;20066;-71
2021/07/25 04:27:58;;;;;;;12.38;9.32;;;589.10;1664.00;;;;;;5093720;28;20027;-72
2021/07/25 04:30:25;;;;;;;11.95;9.20;;;589.20;1664.00;;;;;;5095148;28;20026;-72
2021/07/25 04:32:52;;;;;;;10.73;9.20;;;589.20;1664.00;;;;;;5094811;28;20036;-71
2021/07/25 04:35:18;;;;;;;13.68;9.75;;;589.20;1664.00;;;;;;5094515;28;20032;-70
2021/07/25 04:37:54;;;;;;;12.75;8.98;;;589.30;1638.40;;;;;;5094962;28;20021;-70
2021/07/25 04:40:25;;;;;;;15.07;9.90;;;589.30;1638.40;;;;;;5094915;28;20036;-71
2021/07/25 04:42:53;;;;;;;11.95;10.27;;;589.30;1638.40;;;;;;5094321;28;20047;-73
2021/07/25 04:45:32;;;;;;;12.23;10.25;;;589.40;1638.40;;;;;;5094771;28;20032;-69
2021/07/25 04:48:07;;;;;;;11.27;8.85;;;589.40;1638.40;;;;;;5094794;28;20037;-70
2021/07/25 04:50:41;;;;;;;14.82;9.50;;;589.50;1612.80;;;;;;5094611;28;20045;-70
2021/07/25 04:53:17;;;;;;;11.60;9.63;;;589.70;1612.80;;;;;;5093707;28;20051;-70
2021/07/25 04:55:42;;;;;;;14.65;9.68;;;614.40;1612.80;;;;;;5094373;28;20471;-70
2021/07/25 04:58:08;;;;;;;14.95;9.90;;;614.40;1612.80;;;;;;5094649;28;20044;-70
2021/07/25 05:00:40;;;;;;;13.05;10.32;;;614.40;1587.20;;;;;;5094665;28;20133;-70
2021/07/25 05:03:06;;;;;;;16.38;10.00;;;614.60;1587.20;;;;;;5094451;28;20032;-70
2021/07/25 05:05:32;;;;;;;11.40;9.07;;;614.60;1587.20;;;;;;5094665;28;20027;-70
2021/07/25 05:08:02;;;;;;;14.68;10.05;;;614.70;1587.20;;;;;;5094529;28;20063;-70
2021/07/25 05:10:31;;;;;;;11.35;10.15;;;614.70;1587.20;;;;;;5094418;28;20020;-70
2021/07/25 05:13:08;;;;;;;14.30;9.95;;;614.80;1587.20;;;;;;5093686;28;20039;-70
2021/07/25 05:15:39;;;;;;;11.07;9.93;;;614.80;1587.20;;;;;;5094273;28;20466;-70
2021/07/25 05:18:12;;;;;;;15.77;9.43;;;614.80;1587.20;;;;;;5093020;28;20042;-70
2021/07/25 05:20:52;;;;;;;11.02;8.70;;;614.80;1561.60;;;;;;5094280;28;20031;-70
2021/07/25 05:23:24;;;;;;;13.48;9.52;;;614.80;1587.20;;;;;;5094023;28;20036;-70
2021/07/25 05:25:53;;;;;;;11.02;9.57;;;614.80;1587.20;;;;;;5093969;28;20591;-71
2021/07/25 05:28:21;;;;;;;13.02;9.20;;;614.70;1587.20;;;;;;5093740;28;20089;-67
2021/07/25 05:30:54;;;;;;;15.52;9.23;;;614.70;1587.20;;;;;;5093907;28;20048;-66
2021/07/25 05:33:21;;;;;;;11.32;9.20;;;614.70;1587.20;;;;;;5093884;28;20038;-67
2021/07/25 05:35:47;;;;;;;10.75;8.52;;;614.70;1561.60;;;;;;5093890;28;20031;-70
2021/07/25 05:38:14;;;;;;;19.50;9.73;;;614.70;1587.20;;;;;;5093975;28;20081;-67
2021/07/25 05:40:40;;;;;;;13.15;9.55;;;614.70;1561.60;;;;;;5093873;28;20028;-69
2021/07/25 05:43:06;;;;;;;14.65;8.93;;;614.70;1561.60;;;;;;5093465;28;20067;-66
2021/07/25 05:45:32;;;;;;;13.05;9.40;;;614.80;1561.60;;;;;;5093929;28;20095;-67
2021/07/25 05:47:58;;;;;;;13.05;10.48;;;614.80;1561.60;;;;;;5094032;28;20051;-70
2021/07/25 05:50:24;;;;;;;15.60;10.20;;;614.90;1561.60;;;;;;5093728;28;20051;-67
2021/07/25 05:52:54;;;;;;;13.75;10.30;;;614.90;1561.60;;;;;;5094024;28;20035;-68
2021/07/25 05:55:26;;;;;;;12.68;9.63;;;615.10;1561.60;;;;;;5093784;28;20373;-74
2021/07/25 05:57:52;;;;;;;12.02;9.00;;;615.20;1536.00;;;;;;5093527;28;20024;-68
2021/07/25 06:00:18;;;;;;;11.15;8.85;;;615.20;1536.00;;;;;;5093833;28;20021;-68
2021/07/25 06:03:00;;;;;;;9.18;8.05;;;615.30;1510.40;;;;;;5093650;28;20466;-68
2021/07/25 06:05:30;;;;;;;12.27;8.30;;;640.00;1510.40;;;;;;5093999;28;20458;-69
2021/07/25 06:07:57;;;;;;;10.23;7.88;;;640.20;1510.40;;;;;;5093722;28;20024;-69
2021/07/25 06:10:25;;;;;;;11.82;8.40;;;640.30;1484.80;;;;;;5093599;28;20024;-69
2021/07/25 06:12:51;;;;;;;17.40;8.80;;;640.50;1459.20;;;;;;5093366;28;20091;-68
2021/07/25 06:15:18;;;;;;;20.30;9.30;;;640.60;1459.20;;;;;;5093774;28;20024;-68
2021/07/25 06:17:44;;;;;;;13.85;8.18;;;640.80;1459.20;;;;;;5093115;28;20150;-68
2021/07/25 06:20:10;;;;;;;21.88;7.47;;;665.60;1459.20;;;;;;5093430;28;20482;-69
2021/07/25 06:22:44;;;;;;;15.18;7.97;;;665.70;1433.60;;;;;;5093099;28;20047;-68
2021/07/25 06:25:10;;;;;;;;;;;665.70;1433.60;;;;;;5092332;28;20026;-68
2021/07/25 06:27:37;;;;;;;23.80;8.38;;;665.80;1408.00;;;;;;5094738;28;19973;-68
2021/07/25 06:30:05;;;;;;;19.08;7.85;;;665.80;1433.60;;;;;;5097860;28;20103;-68
2021/07/25 06:32:31;;;;;;;16.48;7.90;;;665.80;1408.00;;;;;;5095512;28;20020;-68
2021/07/25 06:34:57;;;;;;;14.00;7.57;;;666.00;1408.00;;;;;;5096304;28;20027;-69
2021/07/25 06:37:22;;;;;;;15.65;7.78;;;666.10;1408.00;;;;;;5096673;28;20373;-69
2021/07/25 06:39:48;;;;;;;17.17;7.18;;;666.40;1382.40;;;;;;5096871;28;20077;-68
2021/07/25 06:42:14;;;;;;;9.40;7.22;;;691.30;1356.80;;;;;;5096378;28;20107;-69
2021/07/25 06:44:39;;;;;;;13.60;7.70;;;691.50;1331.20;;;;;;5096500;28;20112;-69
2021/07/25 06:47:05;;;;;;;14.98;6.50;;;691.80;1331.20;;;;;;5096277;28;20043;-71
2021/07/25 06:49:31;;;;;;;41.28;12.13;;;692.00;1305.60;;;;;;5096190;28;20531;-69
2021/07/25 06:51:57;;;;;;;22.83;8.13;;;716.80;1305.60;;;;;;5096544;28;20036;-69
2021/07/25 06:54:22;;;;;;;64.50;16.20;;;717.00;1254.40;;;;;;5095824;28;20024;-69
2021/07/25 06:56:48;;;;;;;38.35;10.02;;;717.30;1254.40;;;;;;5095803;28;20032;-68
2021/07/25 06:59:14;;;;;;;17.73;6.53;;;717.50;1228.80;;;;;;5096796;28;20061;-69
2021/07/25 07:01:39;;;;;;;40.42;13.50;;;717.60;1203.20;;;;;;5096605;28;20028;-68
2021/07/25 07:04:05;;;;;;;47.50;13.88;;;742.50;1228.80;;;;;;5095571;28;20032;-68
2021/07/25 07:06:31;;;;;;;25.67;8.32;;;742.60;1228.80;;;;;;5095460;28;20024;-69
2021/07/25 07:08:56;;;;;;;14.43;7.07;;;742.70;1177.60;;;;;;5096759;28;20024;-68
2021/07/25 07:11:27;;;;;;;13.60;6.53;;;742.90;1177.60;;;;;;5096322;28;20390;-68
2021/07/25 07:13:54;;;;;;;41.67;8.88;;;743.00;1152.00;;;;;;5096516;28;20020;-66
2021/07/25 07:16:20;;;;;;;23.58;6.82;;;743.20;1152.00;;;;;;5096506;28;20028;-66
2021/07/25 07:18:46;;;;;;;23.48;7.22;;;743.30;1126.40;;;;;;5096715;28;20020;-66
2021/07/25 07:21:12;;;;;;;19.08;6.20;;;768.20;1126.40;;;;;;5096358;28;20031;-66
2021/07/25 07:23:37;;;;;;;11.68;5.78;;;768.30;1100.80;;;;;;5096361;28;20060;-66
2021/07/25 07:26:03;;;;;;;12.15;6.18;;;768.50;1100.80;;;;;;5096273;28;20020;-68
2021/07/25 07:28:29;;;;;;;14.35;7.50;;;768.80;1075.20;;;;;;5096369;28;20102;-67
2021/07/25 07:30:55;;;;;;;12.10;6.63;;;793.60;1100.80;;;;;;5096252;28;20066;-66
2021/07/25 07:33:22;;;;;;;15.70;7.25;;;793.80;1075.20;;;;;;5096184;28;20112;-66
2021/07/25 07:35:48;;;;;;;30.00;7.25;;;793.90;1075.20;;;;;;5095692;28;20026;-66
2021/07/25 07:38:15;;;;;;;13.63;6.05;;;794.10;1100.80;;;;;;5096190;28;20093;-68
2021/07/25 07:40:43;;;;;;;14.13;6.40;;;794.30;1075.20;;;;;;5095970;28;20124;-68
2021/07/25 07:43:11;;;;;;;15.20;6.18;;;794.50;1049.60;;;;;;5095661;28;20052;-69
2021/07/25 07:45:38;;;;;;;15.25;6.63;;;819.40;1024.00;;;;;;5111514;28;20024;-67
2021/07/25 07:48:04;;;;;;;9.13;6.82;;;819.40;998.40;;;;;;5095983;28;20021;-67
2021/07/25 07:50:30;;;;;;;9.75;6.20;;;819.70;998.40;;;;;;5095911;28;20032;-65
2021/07/25 07:52:57;;;;;;;19.27;7.05;;;819.70;998.40;;;;;;5095683;28;20047;-67
2021/07/25 07:55:23;;;;;;;14.80;6.80;;;819.90;998.40;;;;;;5095708;28;20028;-64
2021/07/25 07:57:49;;;;;;;7.50;6.10;;;819.90;972.80;;;;;;5095544;28;20119;-65
2021/07/25 08:00:15;;;;;;;11.20;6.18;;;819.90;972.80;;;;;;5095140;28;20469;-65
2021/07/25 08:02:42;;;;;;;10.15;6.35;;;844.80;998.40;;;;;;5095385;28;20040;-65
2021/07/25 08:05:08;;;;;;;7.35;6.10;;;844.80;998.40;;;;;;5095209;28;20021;-65
2021/07/25 08:07:34;;;;;;;11.70;6.13;;;845.00;998.40;;;;;;5095238;28;20032;-65
2021/07/25 08:09:59;;;;;;;19.75;7.10;;;845.10;972.80;;;;;;5095278;28;20042;-65
2021/07/25 08:12:25;;;;;;;15.27;6.15;;;845.30;947.20;;;;;;5095218;28;20085;-65
2021/07/25 08:14:51;;;;;;;13.57;6.47;;;845.30;972.80;;;;;;5095253;28;20028;-64
2021/07/25 08:17:17;;;;;;;7.13;5.95;;;845.50;947.20;;;;;;5095355;28;20020;-65
2021/07/25 08:19:42;;;;;;;14.45;6.63;;;845.70;947.20;;;;;;5095137;28;20077;-65
2021/07/25 08:22:09;;;;;;;12.60;6.65;;;870.40;947.20;;;;;;5095405;28;20020;-65
2021/07/25 08:24:38;;;;;;;14.32;6.82;;;870.40;921.60;;;;;;5095299;28;20067;-65
2021/07/25 08:27:08;;;;;;;12.95;6.53;;;870.60;921.60;;;;;;5095084;28;20073;-65
2021/07/25 08:29:34;;;;;;;7.00;6.03;;;870.70;921.60;;;;;;5095222;28;20078;-65
2021/07/25 08:32:00;;;;;;;10.43;6.53;;;870.80;921.60;;;;;;5093835;28;20024;-65
2021/07/25 08:34:26;;;;;;;20.45;6.97;;;871.00;896.00;;;;;;5093486;28;20023;-65
2021/07/25 08:36:52;;;;;;;21.02;6.70;;;871.00;896.00;;;;;;5093561;28;20099;-65
2021/07/25 08:39:18;;;;;;;20.33;8.27;;;871.10;896.00;;;;;;5093989;28;20013;-65
2021/07/25 08:42:10;;;;;;;15.63;6.60;;;871.20;896.00;;;;;;5093279;28;20060;-64
2021/07/25 08:44:42;;;;;;;10.85;6.35;;;896.00;896.00;;;;;;5092637;28;20032;-64
2021/07/25 08:47:34;;;;;;;10.52;6.30;;;896.00;870.40;;;;;;5090843;28;20113;-65
2021/07/25 08:50:02;;;;;;;18.42;6.85;;;896.20;870.40;;;;;;5093323;28;20027;-65
2021/07/25 08:52:30;;;;;;;14.02;6.53;;;896.20;870.40;;;;;;5094420;28;20039;-65
2021/07/25 08:54:57;;;;;;;10.68;6.13;;;896.10;870.40;;;;;;5094545;28;20032;-65
2021/07/25 08:57:31;;;;;;;8.25;6.70;;;896.20;870.40;;;;;;5094457;28;20069;-65
2021/07/25 08:59:58;;;;;;;56.85;8.90;;;896.30;870.40;;;;;;5094526;28;20028;-65
2021/07/25 09:02:26;;;;;;;23.70;7.15;;;896.30;870.40;;;;;;5094253;28;20130;-65
2021/07/25 09:04:53;;;;;;;15.30;7.55;;;896.40;870.40;;;;;;5094473;28;20533;-65
2021/07/25 09:07:21;;;;;;;17.50;7.47;;;896.50;870.40;;;;;;5094025;28;20462;-65
2021/07/25 09:09:50;;;;;;;16.27;7.28;;;896.40;870.40;;;;;;5093050;28;20032;-65
2021/07/25 09:12:18;;;;;;;25.58;11.18;;;896.40;870.40;;;;;;5093998;28;20412;-68
2021/07/25 09:14:52;;;;;;;26.63;9.18;;;896.30;870.40;;;;;;5094615;28;20031;-65
2021/07/25 09:17:18;;;;;;;17.92;8.55;;;896.00;870.40;;;;;;5094291;28;20016;-65
2021/07/25 09:20:11;;;;;;;13.00;7.57;;;871.30;896.00;;;;;;5094337;28;20412;-65
2021/07/25 09:22:53;;;;;;;14.88;7.60;;;896.00;870.40;;;;;;5094191;28;20028;-65
2021/07/25 09:25:22;;;;;;;13.10;7.57;;;896.10;870.40;;;;;;5093824;28;20039;-65
2021/07/25 09:27:57;;;;;;;11.20;7.03;;;896.40;870.40;;;;;;5092921;28;20111;-65
2021/07/25 09:30:30;;;;;;;12.82;6.68;;;896.60;870.40;;;;;;5093686;28;20042;-64
2021/07/25 09:32:56;;;;;;;14.90;7.35;;;896.90;870.40;;;;;;5090309;28;20020;-65
2021/07/25 09:35:25;;;;;;;9.13;6.93;;;921.60;896.00;;;;;;5092580;28;20070;-64
2021/07/25 09:37:54;;;;;;;25.27;7.88;;;921.80;870.40;;;;;;5092557;28;20104;-64
2021/07/25 09:40:28;;;;;;;15.07;7.10;;;921.70;896.00;;;;;;5092304;28;20024;-65
2021/07/25 09:43:11;;;;;;;13.98;7.38;;;921.70;870.40;;;;;;5089720;28;20121;-64
2021/07/25 09:45:45;;;;;;;9.82;7.22;;;921.80;870.40;;;;;;5090896;28;20371;-66
2021/07/25 09:48:11;;;;;;;21.02;7.53;;;921.90;870.40;;;;;;5093921;28;20024;-65
2021/07/25 09:50:37;;;;;;;16.50;7.07;;;922.10;896.00;;;;;;5093878;28;20032;-65
2021/07/25 09:53:03;;;;;;;12.57;6.70;;;922.30;870.40;;;;;;5093612;28;20023;-65
2021/07/25 09:55:32;;;;;;;29.48;7.38;;;922.30;870.40;;;;;;5093649;28;20035;-64
2021/07/25 09:57:58;;;;;;;16.95;7.75;;;922.50;870.40;;;;;;5093376;28;20378;-65
2021/07/25 10:00:40;;;;;;;26.13;7.95;;;947.20;870.40;;;;;;5097434;28;20440;-72
2021/07/25 10:03:18;;;;;;;61.55;10.80;;;947.20;870.40;;;;;;5097999;28;20043;-69
2021/07/25 10:05:51;;;;;;;48.85;10.15;;;947.40;921.60;;;;;;5097909;28;20021;-72
2021/07/25 10:08:21;;;;;;;39.37;9.13;;;947.30;947.20;;;;;;5096222;28;20505;-69
2021/07/25 10:10:54;;;;;;;21.73;8.38;;;947.40;947.20;;;;;;5096596;28;20031;-68
2021/07/25 10:13:21;;;;;;;;;;;947.40;947.20;;;;;;5096684;28;20020;-63
2021/07/25 10:15:58;;;;;;;31.73;9.05;;;947.40;947.20;;;;;;5096237;28;20424;-66
2021/07/25 10:18:26;;;;;;;19.48;7.93;;;947.30;972.80;;;;;;5093822;28;20071;-64
2021/07/25 10:20:56;;;;;;;11.88;7.85;;;947.40;921.60;;;;;;5096168;28;20020;-64
2021/07/25 10:23:32;;;;;;;14.77;8.27;;;947.40;947.20;;;;;;5096957;28;20039;-65
2021/07/25 10:26:01;;;;;;;18.17;7.70;;;947.50;921.60;;;;;;5097320;28;20493;-65
2021/07/25 10:28:30;;;;;;;15.02;8.07;;;947.70;947.20;;;;;;5097462;28;20031;-64
2021/07/25 10:30:58;;;;;;;21.20;7.85;;;947.70;921.60;;;;;;5097930;28;20107;-63
2021/07/25 10:33:25;;;;;;;7.85;7.03;;;947.80;921.60;;;;;;5096744;28;20102;-63
2021/07/25 10:35:52;;;;;;;14.65;7.28;;;947.80;896.00;;;;;;5097122;28;20404;-65
2021/07/25 10:38:18;;;;;;;17.80;7.70;;;947.70;947.20;;;;;;5097145;28;20028;-68
2021/07/25 10:40:45;;;;;;;17.52;7.13;;;947.70;921.60;;;;;;5096914;28;20078;-68
2021/07/25 10:43:13;;;;;;;13.20;8.57;;;947.70;947.20;;;;;;5096805;28;20087;-66
2021/07/25 10:45:39;;;;;;;17.95;8.45;;;947.70;947.20;;;;;;5097079;28;20104;-73
2021/07/25 10:48:17;;;;;;;16.08;8.18;;;947.80;921.60;;;;;;5097208;28;20056;-71
2021/07/25 10:50:43;;;;;;;16.67;7.30;;;947.90;921.60;;;;;;5096913;28;20073;-72
2021/07/25 10:53:24;;;;;;;12.32;7.95;;;948.00;921.60;;;;;;5097281;28;20462;-72
2021/07/25 10:55:52;;;;;;;18.63;7.72;;;948.10;921.60;;;;;;5096356;28;20424;-68
2021/07/25 10:58:20;;;;;;;28.73;9.75;;;948.10;896.00;;;;;;5095942;28;20020;-69
2021/07/25 11:00:55;;;;;;;26.58;8.57;;;948.10;896.00;;;;;;5096689;28;20066;-73
2021/07/25 11:03:30;;;;;;;21.33;7.55;;;972.80;921.60;;;;;;5094097;28;20055;-69
2021/07/25 11:06:00;;;;;;;14.38;8.02;;;972.80;921.60;;;;;;5096863;28;20016;-73
2021/07/25 11:08:51;;;;;;;13.13;7.65;;;973.00;921.60;;;;;;5096757;28;20527;-74
2021/07/25 11:11:29;;;;;;;11.57;7.72;;;973.00;921.60;;;;;;5094494;28;20027;-71
2021/07/25 11:13:54;;;;;;;9.32;7.50;;;973.20;896.00;;;;;;5096603;28;20074;-74
2021/07/25 11:16:30;;;;;;;10.68;7.47;;;973.20;870.40;;;;;;5096244;28;20031;-69
2021/07/25 11:19:21;;;;;;;12.32;7.97;;;973.30;896.00;;;;;;5095867;28;20097;-74
2021/07/25 11:21:53;;;;;;;9.07;7.82;;;973.30;870.40;;;;;;5032972;28;20029;-76
2021/07/25 11:24:19;;;;;;;15.00;7.22;;;973.30;819.20;;;;;;5030744;28;20581;-69
2021/07/25 11:26:48;;;;;;;12.35;8.07;;;973.30;819.20;;;;;;5032963;28;20045;-74
2021/07/25 11:29:37;;;;;;;8.70;7.32;;;973.30;844.80;;;;;;5033551;28;20029;-75
2021/07/25 11:32:36;;;;;;;15.32;8.63;;;973.30;844.80;;;;;;4974363;28;20129;-73
2021/07/25 11:35:06;;;;;;;25.33;12.68;;;973.20;819.20;;;;;;4972561;28;20471;-67
2021/07/25 11:37:40;;;;;;;18.15;10.90;;;973.30;819.20;;;;;;4976593;28;20031;-70
2021/07/25 11:40:09;;;;;;;26.10;9.93;;;973.30;819.20;;;;;;4978870;28;20397;-73
2021/07/25 11:42:36;;;;;;;16.30;8.40;;;973.30;819.20;;;;;;4977247;28;20043;-68
2021/07/25 11:45:06;;;;;;;18.02;9.63;;;973.30;819.20;;;;;;4983224;28;20034;-67
2021/07/25 11:47:33;;;;;;;17.55;8.60;;;973.40;819.20;;;;;;4981553;28;20044;-70
2021/07/25 11:49:59;;;;;;;10.52;8.50;;;973.50;819.20;;;;;;4986304;28;20035;-68
2021/07/25 11:52:27;;;;;;;19.27;9.55;;;973.50;793.60;;;;;;4985629;28;20038;-67
2021/07/25 11:54:53;;;;;;;19.17;10.18;;;973.60;819.20;;;;;;4982698;28;20113;-72
2021/07/25 11:57:30;;;;;;;15.52;9.63;;;973.70;819.20;;;;;;4979320;28;20117;-73
2021/07/25 11:59:59;;;;;;;13.77;8.52;;;973.70;819.20;;;;;;5005302;28;20061;-68
2021/07/25 12:02:34;;;;;;;18.55;9.90;;;973.70;819.20;;;;;;5003666;28;20396;-69
2021/07/25 12:05:00;;;;;;;20.35;10.85;;;998.50;844.80;;;;;;4996619;28;20156;-70
2021/07/25 12:07:34;;;;;;;16.48;9.38;;;998.50;819.20;;;;;;4993800;28;20022;-70
2021/07/25 12:10:00;;;;;;;18.20;8.95;;;998.40;844.80;;;;;;5067314;28;20041;-75
2021/07/25 12:12:32;;;;;;;13.98;8.27;;;998.40;844.80;;;;;;5075196;28;20017;-74
2021/07/25 12:15:00;;;;;;;15.48;8.77;;;998.40;819.20;;;;;;5075105;28;20020;-67